Main page
METAR-TAF:

METAR-TAF

Airports :

Kish International Airport

Kish, Iran

latitude: 26-31-36N, longitude: 053-58-54E, elevation: 30 m

Current weather observation

The report was made 18 minutes ago, at 14:00 UTC
Wind 6 kt from the West
Temperature 35°C
Humidity 80%
Pressure 995 hPa
Visibility: 3500 m
haze

METAR: OIBK 181400Z 28006KT 3500 HZ NSC 35/31 Q0995

Time: 18:48 (14:18 UTC)

Forecast

The report was made 2 hours and 58 minutes ago, at 11:20 UTC
Forecast valid from 18 at 12 UTC to 19 at 18 UTC
Wind 8 kt from the West
Visibility: 4000 m
haze
Becoming
from 18 at 18 UTC to 18 at 20 UTC
Visibility: 2000 m
mist
Becoming
from 19 at 04 UTC to 19 at 06 UTC
Visibility: 4000 m
haze

TAF: OIBK 181120Z 1812/1918 27004MPS 4000 HZ NSC BECMG 1818/1820 2000 BR BECMG 1904/1906 4000 HZ

Weather observations and forecasts of more than 4000 airports (METAR and TAF reports).

The available stations are represented by yellow and red dots on the map.

Hover mouse over dot to see the name of the station.

Then click to see weather observations and forecasts.

To change the map : click on the green buttons with a black cross to zoom in, on the green button with a dash to zoom out, or on the green arrows for adjacent maps.


METAR-TAF: